Webcam

2021/06/23 00:50 EBBR 230050Z 01005KT 9999 -RA SCT012 BKN028 11/10 Q1020 NOSIG

Webcam

--- Refresh now ---